Bremen — C6JC3 — position and weather

sailwx.info

Track history (hours):
 
Tides and Currents Weather Stations Pressure Air Temp Water Temp Dewpoint Dewpoint Depression Visibility Wind Speed Wind Dir Waves Ship Positions

Bremen

Operator: Hapag-Lloyd Container Line

Last reported at 2017-Sep-15 05:34 UTC. Time now 2017-Sep-23 14:50 UTC.
Position N 63°30' W 051°43'.
Warning: this ship's position is 8 days out of date.

Length 111.5 m; beam 17 m; draft 4.8 m.

Type: Ship. MMSI: 308429000.

Date/timePositionNaut miles runAvg speedWind from/ knotsBaromVisibWave heightAir tempDewpointWater temp
2017-Sep-15 05:34N 63°30' W 051°43'112.2
2017-Sep-15 05:30N 63°31' W 051°44'713.1
2017-Sep-15 05:00N 63°37' W 051°51'612.9
2017-Sep-15 04:31N 63°42' W 051°57'612.8
2017-Sep-15 04:00N 63°48' W 052°04'612.7
2017-Sep-15 03:31N 63°54' W 052°11'612.2
2017-Sep-15 03:00N 63°59' W 052°16'510.9
2017-Sep-15 02:30N 64°04' W 052°09'714.1
2017-Sep-15 02:00N 64°07' W 051°55'713.1
2017-Sep-15 01:30N 64°12' W 051°45'713.4
2017-Sep-15 01:00N 64°18' W 051°38'713.9
2017-Sep-15 00:30N 64°25' W 051°32'815.4
2017-Sep-15 00:00N 64°31' W 051°23'711.2
2017-Sep-14 23:24N 64°35' W 051°09'2 5.5
2017-Sep-14 22:57N 64°33' W 051°05'0 0.1
2017-Sep-14 22:18N 64°33' W 051°06'0 0.0
2017-Sep-14 22:00N 64°33' W 051°06'0 0.0
2017-Sep-14 21:30N 64°33' W 051°06'0 0.0
2017-Sep-14 21:00N 64°33' W 051°05'0 0.0
2017-Sep-14 20:24N 64°33' W 051°05'0 0.0
2017-Sep-14 20:00N 64°33' W 051°05'0 0.1
2017-Sep-14 19:30N 64°33' W 051°05'0 0.0
2017-Sep-14 19:00N 64°33' W 051°05'0 0.1
2017-Sep-14 18:30N 64°33' W 051°05'0 0.0
2017-Sep-14 17:54N 64°33' W 051°05'0 0.0
2017-Sep-14 17:21N 64°33' W 051°06'0 0.1
2017-Sep-14 16:57N 64°33' W 051°05'3 7.7
2017-Sep-14 16:30N 64°29' W 051°07'611.8
2017-Sep-14 16:00N 64°24' W 051°13'613.0
2017-Sep-14 15:30N 64°18' W 051°17'612.5
2017-Sep-14 15:00N 64°14' W 051°29'612.6
2017-Sep-14 14:30N 64°13' W 051°43'3 4.9
2017-Sep-14 13:58N 64°11' W 051°46'0 0.0
2017-Sep-14 13:28N 64°11' W 051°46'0 0.0
2017-Sep-14 12:58N 64°11' W 051°46'0 0.1
2017-Sep-14 12:28N 64°11' W 051°45'0 0.1
2017-Sep-14 11:58N 64°11' W 051°46'0 0.1
2017-Sep-14 11:28N 64°11' W 051°46'0 0.2
2017-Sep-14 10:58N 64°11' W 051°46'0 0.1
2017-Sep-14 10:28N 64°11' W 051°46'0 0.2
2017-Sep-14 10:00N 64°11' W 051°45'4 8.9
2017-Sep-14 09:30N 64°08' W 051°53'612.2
2017-Sep-14 09:00N 64°05' W 052°05'611.9
2017-Sep-14 08:31N 64°04' W 052°19'713.5
2017-Sep-14 08:00N 64°08' W 052°30'713.7
2017-Sep-14 07:30N 64°15' W 052°35'713.9
2017-Sep-14 07:00N 64°21' W 052°39'713.9
2017-Sep-14 06:30N 64°28' W 052°44'713.8
2017-Sep-14 06:00N 64°35' W 052°49'713.4
2017-Sep-14 05:31N 64°41' W 052°54'713.6
2017-Sep-14 05:00N 64°47' W 052°59'713.5
2017-Sep-14 04:30N 64°54' W 053°03'713.6
2017-Sep-14 04:00N 65°00' W 053°08'713.4
2017-Sep-14 03:30N 65°07' W 053°13'  
2017-Sep-10 21:15N 65°46' W 053°22'17 0.5
2017-Sep-09 08:52N 65°35' W 052°51'6 9.3
2017-Sep-09 08:14N 65°31' W 053°02'2 9.2
2017-Sep-09 07:59N 65°30' W 053°06'4 8.8
2017-Sep-09 07:30N 65°29' W 053°16'5 9.7
2017-Sep-09 07:00N 65°33' W 053°24'510.9
2017-Sep-09 06:30N 65°38' W 053°29'510.7
2017-Sep-09 06:01N 65°42' W 053°34'510.7
2017-Sep-09 05:30N 65°47' W 053°39'1310.5
2017-Sep-09 04:17N 65°59' W 053°52'310.9
2017-Sep-09 04:00N 66°02' W 053°54'  
Track history (hours):
 
Tides and Currents Weather Stations Pressure Air Temp Water Temp Dewpoint Dewpoint Depression Visibility Wind Speed Wind Dir Waves Ship Positions

Bremen

Operator: Hapag-Lloyd Container Line

Last reported at 2017-Sep-15 05:34 UTC. Time now 2017-Sep-23 14:50 UTC.
Position N 63°30' W 051°43'.
Warning: this ship's position is 8 days out of date.

Length 111.5 m; beam 17 m; draft 4.8 m.

Type: Ship. MMSI: 308429000.

Date/timePositionNaut miles runAvg speedWind from/ knotsBaromVisibWave heightAir tempDewpointWater temp
2017-Sep-15 05:34N 63°30' W 051°43'112.2
2017-Sep-15 05:30N 63°31' W 051°44'713.1
2017-Sep-15 05:00N 63°37' W 051°51'612.9
2017-Sep-15 04:31N 63°42' W 051°57'612.8
2017-Sep-15 04:00N 63°48' W 052°04'612.7
2017-Sep-15 03:31N 63°54' W 052°11'612.2
2017-Sep-15 03:00N 63°59' W 052°16'510.9
2017-Sep-15 02:30N 64°04' W 052°09'714.1
2017-Sep-15 02:00N 64°07' W 051°55'713.1
2017-Sep-15 01:30N 64°12' W 051°45'713.4
2017-Sep-15 01:00N 64°18' W 051°38'713.9
2017-Sep-15 00:30N 64°25' W 051°32'815.4
2017-Sep-15 00:00N 64°31' W 051°23'711.2
2017-Sep-14 23:24N 64°35' W 051°09'2 5.5
2017-Sep-14 22:57N 64°33' W 051°05'0 0.1
2017-Sep-14 22:18N 64°33' W 051°06'0 0.0
2017-Sep-14 22:00N 64°33' W 051°06'0 0.0
2017-Sep-14 21:30N 64°33' W 051°06'0 0.0
2017-Sep-14 21:00N 64°33' W 051°05'0 0.0
2017-Sep-14 20:24N 64°33' W 051°05'0 0.0
2017-Sep-14 20:00N 64°33' W 051°05'0 0.1
2017-Sep-14 19:30N 64°33' W 051°05'0 0.0
2017-Sep-14 19:00N 64°33' W 051°05'0 0.1
2017-Sep-14 18:30N 64°33' W 051°05'0 0.0
2017-Sep-14 17:54N 64°33' W 051°05'0 0.0
2017-Sep-14 17:21N 64°33' W 051°06'0 0.1
2017-Sep-14 16:57N 64°33' W 051°05'3 7.7
2017-Sep-14 16:30N 64°29' W 051°07'611.8
2017-Sep-14 16:00N 64°24' W 051°13'613.0
2017-Sep-14 15:30N 64°18' W 051°17'612.5
2017-Sep-14 15:00N 64°14' W 051°29'612.6
2017-Sep-14 14:30N 64°13' W 051°43'3 4.9
2017-Sep-14 13:58N 64°11' W 051°46'0 0.0
2017-Sep-14 13:28N 64°11' W 051°46'0 0.0
2017-Sep-14 12:58N 64°11' W 051°46'0 0.1
2017-Sep-14 12:28N 64°11' W 051°45'0 0.1
2017-Sep-14 11:58N 64°11' W 051°46'0 0.1
2017-Sep-14 11:28N 64°11' W 051°46'0 0.2
2017-Sep-14 10:58N 64°11' W 051°46'0 0.1
2017-Sep-14 10:28N 64°11' W 051°46'0 0.2
2017-Sep-14 10:00N 64°11' W 051°45'4 8.9
2017-Sep-14 09:30N 64°08' W 051°53'612.2
2017-Sep-14 09:00N 64°05' W 052°05'611.9
2017-Sep-14 08:31N 64°04' W 052°19'713.5
2017-Sep-14 08:00N 64°08' W 052°30'713.7
2017-Sep-14 07:30N 64°15' W 052°35'713.9
2017-Sep-14 07:00N 64°21' W 052°39'713.9
2017-Sep-14 06:30N 64°28' W 052°44'713.8
2017-Sep-14 06:00N 64°35' W 052°49'713.4
2017-Sep-14 05:31N 64°41' W 052°54'713.6
2017-Sep-14 05:00N 64°47' W 052°59'713.5
2017-Sep-14 04:30N 64°54' W 053°03'713.6
2017-Sep-14 04:00N 65°00' W 053°08'713.4
2017-Sep-14 03:30N 65°07' W 053°13'  
2017-Sep-10 21:15N 65°46' W 053°22'17 0.5
2017-Sep-09 08:52N 65°35' W 052°51'6 9.3
2017-Sep-09 08:14N 65°31' W 053°02'2 9.2
2017-Sep-09 07:59N 65°30' W 053°06'4 8.8
2017-Sep-09 07:30N 65°29' W 053°16'5 9.7
2017-Sep-09 07:00N 65°33' W 053°24'510.9
2017-Sep-09 06:30N 65°38' W 053°29'510.7
2017-Sep-09 06:01N 65°42' W 053°34'510.7
2017-Sep-09 05:30N 65°47' W 053°39'1310.5
2017-Sep-09 04:17N 65°59' W 053°52'310.9
2017-Sep-09 04:00N 66°02' W 053°54'  

Dump ship's entire track history